createdAt,value
2023-01-03T00:00:25.204Z,9.23
2023-01-03T00:05:25.031Z,9.21
2023-01-03T00:10:24.975Z,9.18
2023-01-03T00:15:24.901Z,9.14
2023-01-03T00:20:24.825Z,9.10
2023-01-03T00:25:24.753Z,9.03
2023-01-03T00:30:24.709Z,8.94
2023-01-03T00:35:24.615Z,8.83
2023-01-03T00:40:24.571Z,8.72
2023-01-03T00:45:25.891Z,8.62
2023-01-03T00:50:24.426Z,8.55
2023-01-03T00:55:24.366Z,8.50
2023-01-03T01:00:24.306Z,8.48
2023-01-03T01:05:44.062Z,8.47
2023-01-03T01:10:36.462Z,8.47
2023-01-03T01:15:36.470Z,8.46
2023-01-03T01:20:36.328Z,8.46
2023-01-03T01:25:36.284Z,8.47
2023-01-03T01:30:36.182Z,8.49
2023-01-03T01:35:36.109Z,8.49
2023-01-03T01:40:36.059Z,8.49
2023-01-03T01:45:36.022Z,8.48
2023-01-03T01:50:35.908Z,8.47
2023-01-03T01:55:35.865Z,8.45
2023-01-03T02:00:35.781Z,8.43
2023-01-03T02:05:35.715Z,8.42
2023-01-03T02:10:35.663Z,8.41
2023-01-03T02:15:35.604Z,8.40
2023-01-03T02:20:35.512Z,8.39
2023-01-03T02:25:35.474Z,8.38
2023-01-03T02:30:35.367Z,8.36
2023-01-03T02:35:35.330Z,8.35
2023-01-03T02:40:35.243Z,8.35
2023-01-03T02:45:35.209Z,8.35
2023-01-03T02:50:35.114Z,8.35
2023-01-03T02:55:35.060Z,8.36
2023-01-03T03:00:34.999Z,8.36
2023-01-03T03:05:34.929Z,8.36
2023-01-03T03:10:34.847Z,8.36
2023-01-03T03:15:34.786Z,8.36
2023-01-03T03:20:34.722Z,8.36
2023-01-03T03:25:34.664Z,8.36
2023-01-03T03:30:34.578Z,8.35
2023-01-03T03:35:34.528Z,8.34
2023-01-03T03:40:34.446Z,8.32
2023-01-03T03:45:34.427Z,8.31
2023-01-03T03:50:34.358Z,8.30
2023-01-03T03:55:34.260Z,8.30
2023-01-03T04:00:34.166Z,8.30
2023-01-03T04:05:34.115Z,8.30
2023-01-03T04:10:37.636Z,8.29
2023-01-03T04:15:33.961Z,8.29
2023-01-03T04:20:33.897Z,8.28
2023-01-03T04:25:33.836Z,8.27
2023-01-03T04:30:33.795Z,8.24
2023-01-03T04:35:33.702Z,8.22
2023-01-03T04:40:33.638Z,8.20
2023-01-03T04:45:33.600Z,8.18
2023-01-03T04:50:33.507Z,8.17
2023-01-03T04:55:36.423Z,8.16
2023-01-03T05:00:33.380Z,8.15
2023-01-03T05:05:33.278Z,8.12
2023-01-03T05:10:33.251Z,8.08
2023-01-03T05:15:47.767Z,8.02
2023-01-03T05:20:40.134Z,7.93
2023-01-03T05:25:40.090Z,7.80
2023-01-03T05:30:40.000Z,7.66
2023-01-03T05:35:40.002Z,7.52
2023-01-03T05:40:41.563Z,7.37
2023-01-03T05:45:39.899Z,7.24
2023-01-03T05:50:39.792Z,7.12
2023-01-03T05:55:39.643Z,7.00
2023-01-03T06:00:39.629Z,6.87
2023-01-03T06:05:44.596Z,6.75
2023-01-03T06:10:40.460Z,6.63
2023-01-03T06:15:39.414Z,6.53
2023-01-03T06:20:39.360Z,6.44
2023-01-03T06:25:39.309Z,6.35
2023-01-03T06:30:39.202Z,6.27
2023-01-03T06:35:39.161Z,6.19
2023-01-03T06:40:45.443Z,6.12
2023-01-03T06:45:40.017Z,6.06
2023-01-03T06:50:38.947Z,6.01
2023-01-03T06:55:38.881Z,5.97
2023-01-03T07:00:38.802Z,5.93
2023-01-03T07:05:38.751Z,5.89
2023-01-03T07:10:38.660Z,5.85
2023-01-03T07:15:38.635Z,5.81
2023-01-03T07:20:38.512Z,5.76
2023-01-03T07:25:38.488Z,5.71
2023-01-03T07:30:38.388Z,5.66
2023-01-03T07:35:38.353Z,5.62
2023-01-03T07:40:38.266Z,5.59
2023-01-03T07:45:38.211Z,5.58
2023-01-03T07:50:38.137Z,5.58
2023-01-03T07:55:38.083Z,5.60
2023-01-03T08:00:37.987Z,5.65
2023-01-03T08:05:37.960Z,5.72
2023-01-03T08:10:37.864Z,5.81
2023-01-03T08:15:37.873Z,5.94
2023-01-03T08:20:37.844Z,6.18
2023-01-03T08:25:37.673Z,6.62
2023-01-03T08:30:37.596Z,7.19
2023-01-03T08:35:37.549Z,7.61
2023-01-03T08:40:41.815Z,7.77
2023-01-03T08:45:38.434Z,7.79
2023-01-03T08:50:37.327Z,7.78
2023-01-03T08:55:37.273Z,7.81
2023-01-03T09:00:37.183Z,7.98
2023-01-03T09:05:37.158Z,8.26
2023-01-03T09:10:39.676Z,9.17
2023-01-03T09:15:37.994Z,10.23
2023-01-03T09:20:36.932Z,11.44
2023-01-03T09:25:37.643Z,12.94
2023-01-03T09:30:36.820Z,14.43
2023-01-03T09:35:36.693Z,15.81
2023-01-03T09:40:36.665Z,17.02
2023-01-03T09:45:36.642Z,18.02
2023-01-03T09:50:57.336Z,18.80
2023-01-03T09:55:37.463Z,19.34
2023-01-03T10:00:36.419Z,19.75
2023-01-03T10:05:36.311Z,20.21
2023-01-03T10:10:36.247Z,20.77
2023-01-03T10:15:36.190Z,21.08
2023-01-03T10:20:36.125Z,21.28
2023-01-03T10:25:36.091Z,21.68
2023-01-03T10:30:36.012Z,22.20
2023-01-03T10:35:35.940Z,22.79
2023-01-03T10:40:35.868Z,22.76
2023-01-03T10:45:41.614Z,21.53
2023-01-03T10:50:36.721Z,19.68
2023-01-03T10:55:35.631Z,17.88
2023-01-03T11:00:35.628Z,16.30
2023-01-03T11:05:35.542Z,15.15
2023-01-03T11:10:35.420Z,14.32
2023-01-03T11:15:38.673Z,13.64
2023-01-03T11:20:35.313Z,13.06
2023-01-03T11:25:35.239Z,12.57
2023-01-03T11:30:35.167Z,12.25
2023-01-03T11:35:35.108Z,12.06
2023-01-03T11:40:35.052Z,11.95
2023-01-03T11:45:35.032Z,11.89
2023-01-03T11:50:37.433Z,11.80
2023-01-03T11:55:34.840Z,11.63
2023-01-03T12:00:34.793Z,11.50
2023-01-03T12:05:34.672Z,11.46
2023-01-03T12:10:34.641Z,11.49
2023-01-03T12:15:34.598Z,11.61
2023-01-03T12:20:34.539Z,11.92
2023-01-03T12:25:34.411Z,12.17
2023-01-03T12:30:34.354Z,12.37
2023-01-03T12:35:34.300Z,12.57
2023-01-03T12:40:34.243Z,12.72
2023-01-03T12:45:34.924Z,12.90
2023-01-03T12:50:34.183Z,13.04
2023-01-03T12:55:34.060Z,13.04
2023-01-03T13:00:33.978Z,12.98
2023-01-03T13:05:33.900Z,12.91
2023-01-03T13:10:33.854Z,12.74
2023-01-03T13:15:36.929Z,12.48
2023-01-03T13:20:33.718Z,12.24
2023-01-03T13:25:33.632Z,12.07
2023-01-03T13:30:33.564Z,11.92
2023-01-03T13:35:33.492Z,11.78
2023-01-03T13:41:08.050Z,11.64
2023-01-03T13:45:34.352Z,11.51
2023-01-03T13:50:33.287Z,11.41
2023-01-03T13:55:33.202Z,11.32
2023-01-03T14:00:33.158Z,11.28
2023-01-03T14:05:33.065Z,11.33
2023-01-03T14:10:33.022Z,11.47
2023-01-03T14:15:32.964Z,11.54
2023-01-03T14:20:32.911Z,11.47
2023-01-03T14:25:32.804Z,11.33
2023-01-03T14:30:32.747Z,11.17
2023-01-03T14:35:32.679Z,11.05
2023-01-03T14:40:32.622Z,11.02
2023-01-03T14:45:32.544Z,11.01
2023-01-03T14:50:32.483Z,10.97
2023-01-03T14:55:32.538Z,10.87
2023-01-03T15:00:33.511Z,10.72
2023-01-03T15:05:32.230Z,10.55
2023-01-03T15:10:32.207Z,10.36
2023-01-03T15:15:32.125Z,10.17
2023-01-03T15:20:32.066Z,10.02
2023-01-03T15:25:32.012Z,9.92
2023-01-03T15:30:31.947Z,9.83
2023-01-03T15:35:31.897Z,9.75
2023-01-03T15:40:31.816Z,9.67
2023-01-03T15:45:31.754Z,9.59
2023-01-03T15:50:31.686Z,9.50
2023-01-03T15:55:31.610Z,9.39
2023-01-03T16:00:31.550Z,9.26
2023-01-03T16:05:31.462Z,9.12
2023-01-03T16:10:31.429Z,8.97
2023-01-03T16:15:31.323Z,8.82
2023-01-03T16:20:31.292Z,8.68
2023-01-03T16:25:31.193Z,8.55
2023-01-03T16:30:31.121Z,8.42
2023-01-03T16:35:31.055Z,8.29
2023-01-03T16:40:31.344Z,8.16
2023-01-03T16:45:31.027Z,8.05
2023-01-03T16:50:30.884Z,7.96
2023-01-03T16:55:31.924Z,7.88
2023-01-03T17:00:30.760Z,7.79
2023-01-03T17:05:30.655Z,7.68
2023-01-03T17:10:30.599Z,7.57
2023-01-03T17:15:30.534Z,7.47
2023-01-03T17:20:30.497Z,7.39
2023-01-03T17:25:30.408Z,7.32
2023-01-03T17:30:30.380Z,7.26
2023-01-03T17:35:30.270Z,7.21
2023-01-03T17:40:34.032Z,7.16
2023-01-03T17:45:30.123Z,7.13
2023-01-03T17:50:30.080Z,7.11
2023-01-03T17:55:29.990Z,7.11
2023-01-03T18:00:29.991Z,7.11
2023-01-03T18:05:29.913Z,7.14
2023-01-03T18:10:29.812Z,7.17
2023-01-03T18:15:29.831Z,7.20
2023-01-03T18:20:29.653Z,7.21
2023-01-03T18:25:29.622Z,7.19
2023-01-03T18:30:29.517Z,7.16
2023-01-03T18:35:37.276Z,7.13
2023-01-03T18:40:30.402Z,7.09
2023-01-03T18:45:29.418Z,7.06
2023-01-03T18:50:29.242Z,7.03
2023-01-03T18:55:29.183Z,7.02
2023-01-03T19:00:29.121Z,7.02
2023-01-03T19:05:29.073Z,7.03
2023-01-03T19:10:29.002Z,7.03
2023-01-03T19:15:28.923Z,7.04
2023-01-03T19:20:28.883Z,7.03
2023-01-03T19:25:28.836Z,7.02
2023-01-03T19:30:35.268Z,7.01
2023-01-03T19:35:29.670Z,6.99
2023-01-03T19:40:28.592Z,6.97
2023-01-03T19:45:28.531Z,6.95
2023-01-03T19:50:28.441Z,6.93
2023-01-03T19:55:28.398Z,6.93
2023-01-03T20:00:28.355Z,6.92
2023-01-03T20:05:28.275Z,6.92
2023-01-03T20:10:28.181Z,6.93
2023-01-03T20:15:28.154Z,6.94
2023-01-03T20:20:28.064Z,6.95
2023-01-03T20:25:28.029Z,6.94
2023-01-03T20:30:27.952Z,6.94
2023-01-03T20:40:28.800Z,6.94
2023-01-03T20:45:27.716Z,6.93
2023-01-03T20:50:27.643Z,6.92
2023-01-03T20:55:27.625Z,6.90
2023-01-03T21:00:27.519Z,6.88
2023-01-03T21:05:27.476Z,6.87
2023-01-03T21:10:27.420Z,6.87
2023-01-03T21:15:27.314Z,6.89
2023-01-03T21:20:27.260Z,6.93
2023-01-03T21:25:27.975Z,6.98
2023-01-03T21:30:27.288Z,7.05
2023-01-03T21:35:27.066Z,7.13
2023-01-03T21:40:26.989Z,7.21
2023-01-03T21:45:26.948Z,7.28
2023-01-03T21:50:26.862Z,7.33
2023-01-03T21:55:26.786Z,7.37
2023-01-03T22:00:26.725Z,7.40
2023-01-03T22:05:26.666Z,7.42
2023-01-03T22:10:26.581Z,7.44
2023-01-03T22:15:26.540Z,7.48
2023-01-03T22:20:26.461Z,7.52
2023-01-03T22:25:26.388Z,7.56
2023-01-03T22:30:26.323Z,7.60
2023-01-03T22:35:26.278Z,7.62
2023-01-03T22:40:26.183Z,7.66
2023-01-03T22:45:26.156Z,7.71
2023-01-03T22:50:26.027Z,7.76
2023-01-03T22:55:31.746Z,7.82
2023-01-03T23:00:26.906Z,7.89
2023-01-03T23:05:25.855Z,7.93
2023-01-03T23:10:25.768Z,7.97
2023-01-03T23:15:25.738Z,7.98
2023-01-03T23:20:25.628Z,7.99
2023-01-03T23:25:25.585Z,8.00
2023-01-03T23:30:25.560Z,8.02
2023-01-03T23:35:25.448Z,8.03
2023-01-03T23:40:25.382Z,8.04
2023-01-03T23:45:25.326Z,8.06
2023-01-03T23:50:25.230Z,8.07
2023-01-03T23:55:25.226Z,8.08
